• Join FlightAware (Why Join?)
  • Login
  • US Flag 
12:43AM EDT


 

Airport Tracker/Info


-or-


 

Live Flight TrackerFlight Track Log ✈ N738LM ✈ 14-Jul-2014 ✈ MYEH / ELH - KFXE

Flight Track Log - Related Links

Times and Time Zones

All times are in EDT time to prevent confusion due to time zone crossing. See the N738LM flight status page for this flight to view local times or setup timezone preferences in your user account.

Time Position Orientation Groundspeed Altitude Reporting Facility
EDT Latitude Longitude Course Direction KTS MPH feet Rate Location/Type
05:06PM 25.5158 -77.4253 286° West 85 98 6,400  Level Miami Center
05:07PM 25.5156 -77.4506 269° West 85 98 6,500 60 Climbing Miami Center
05:08PM 25.5164 -77.4786 272° West 84 97 6,600 120 Climbing Miami Center
05:09PM 25.5156 -77.5047 268° West 84 97 6,800 60 Climbing Miami Center
05:10PM 25.5181 -77.5314 276° West 85 98 6,800  Level Miami Center
05:11PM 25.5106 -76.8590 286° West  Level FlightAware Approximate
05:11PM 25.5244 -77.5581 285° West 84 97 6,900  Level Miami Center
05:12PM 25.5278 -77.5839 278° West 84 97 6,900  Level Miami Center
05:13PM 25.5314 -77.6122 278° West 88 101 7,000 60 Climbing Miami Center
05:14PM 25.5358 -77.6411 280° West 88 101 7,100 60 Climbing Miami Center
05:15PM 25.5411 -77.6675 283° West 88 101 7,200 60 Climbing Miami Center
05:16PM 25.5472 -77.6931 285° West 87 100 7,300 60 Climbing Miami Center
05:17PM 25.5539 -77.7197 285° West 86 99 7,400 60 Climbing Miami Center
05:18PM 25.5597 -77.7461 284° West 85 98 7,500  Climbing Miami Center
05:19PM 25.5656 -77.7722 284° West 85 98 7,500  Level Miami Center
05:20PM 25.5717 -77.8014 283° West 86 99 7,600  Climbing Miami Center
05:21PM 25.5761 -77.8322 279° West 94 108 7,600  Level Miami Center
05:22PM 25.5819 -77.8614 283° West 97 112 7,600  Level Miami Center
05:23PM 25.5900 -77.8964 284° West 102 117 7,600 -60 Level Miami Center
05:24PM 25.6011 -77.9275 292° West 105 121 7,500 -60 Descending Miami Center
05:25PM 25.6114 -77.9603 289° West 108 124 7,500  Level Miami Center
05:26PM 25.6211 -77.9908 289° West 103 119 7,500  Level Miami Center
05:27PM 25.6308 -78.0197 290° West 100 115 7,500  Level Miami Center
05:28PM 25.6419 -78.0500 292° West 102 117 7,500  Level Miami Center
05:29PM 25.6536 -78.0803 293° West 103 119 7,500  Level Miami Center
05:30PM 25.6675 -78.1117 296° West 103 119 7,500  Level Miami Center
05:31PM 25.6803 -78.1381 298° West 102 117 7,500 -60 Level Miami Center
05:32PM 25.6889 -78.1694 287° West 102 117 7,400 -60 Descending Miami Center
05:33PM 25.6944 -78.2058 280° West 106 122 7,400  Level Miami Center
05:34PM 25.7017 -78.2347 286° West 104 120 7,400  Level Miami Center
05:35PM 25.7092 -78.2644 286° West 102 117 7,500  Climbing Miami Center
05:36PM 25.7200 -78.2914 294° West 100 115 7,500  Level Miami Center
05:38PM 25.7250 -78.3247 279° West 98 113 7,500  Level Miami Center
05:39PM 25.7322 -78.3542 285° West 98 113 7,500  Level Miami Center
05:40PM 25.7397 -78.3836 286° West 98 113 7,500  Level Miami Center
05:41PM 25.7442 -78.4189 278° West 100 115 7,500  Level Miami Center
05:42PM 25.7436 -78.4486 269° West 101 116 7,500  Level Miami Center
05:43PM 25.7378 -78.4803 258° West 101 116 7,500  Level Miami Center
05:44PM 25.7325 -78.5108 259° West 100 115 7,500  Level Miami Center
05:45PM 25.7294 -78.5439 264° West 103 119 7,500  Level Miami Center
05:46PM 25.7306 -78.5744 272° West 102 117 7,500  Level Miami Center
05:47PM 25.7328 -78.6050 275° West 99 114 7,500  Level Miami Center
05:48PM 25.7347 -78.6389 274° West 100 115 7,500  Level Miami Center
05:49PM 25.7333 -78.6697 267° West 100 115 7,500  Level Miami Center
05:50PM 25.7361 -78.6978 276° West 96 110 7,500  Level Miami Center
05:51PM 25.7403 -78.7275 279° West 96 110 7,500  Level Miami Center
05:52PM 25.7431 -78.7614 275° West 97 112 7,500  Level Miami Center
05:53PM 25.7497 -78.7908 284° West 97 112 7,500  Level Miami Center
05:54PM 25.7594 -78.8164 293° West 97 112 7,500  Level Miami Center
05:55PM 25.7714 -78.8464 294° West 97 112 7,500  Level Miami Center
05:56PM 25.7850 -78.8747 298° West 97 112 7,500  Level Miami Center
05:57PM 25.7981 -78.9014 299° West 97 112 7,500  Level Miami Center
05:58PM 25.8067 -78.9306 288° West 98 113 7,600  Climbing Miami Center
05:59PM 25.8169 -78.9603 291° West 99 114 7,600  Level Miami Center
06:00PM 25.8306 -78.9878 299° West 99 114 7,600 -60 Level Miami Center
06:01PM 25.8419 -79.0164 294° West 99 114 7,500 -60 Descending Miami Center
06:02PM 25.8533 -79.0450 294° West 101 116 7,500 -60 Level Miami Center
06:03PM 25.8650 -79.0747 294° West 102 117 7,400 -60 Descending Miami Center
06:04PM 25.8786 -79.1025 299° West 102 117 7,400  Level Miami Center
06:05PM 25.8939 -79.1350 298° West 101 116 7,500  Climbing Miami Center
06:06PM 25.9078 -79.1614 300° West 101 116 7,500  Level Miami Center
06:07PM 25.9214 -79.1864 301° West 97 112 7,500  Level Miami Center
06:08PM 25.9408 -79.2069 316° Northwest 95 109 7,600  Climbing Miami Center
06:09PM 25.9581 -79.2269 314° West 95 109 7,600  Level Miami Center
06:10PM 25.9764 -79.2489 313° West 95 109 7,600  Level Miami Center
06:11PM 25.9919 -79.2756 303° West 101 116 7,600 -60 Level Miami Center
06:13PM 26.0122 -79.3053 307° West 101 116 7,500 -60 Descending Miami Center
06:14PM 26.0292 -79.3300 307° West 102 117 7,500  Level Miami Center
06:15PM 26.0444 -79.3561 303° West 102 117 7,500 -60 Level Miami Center
06:16PM 26.0600 -79.3825 303° West 101 116 7,400  Descending Miami Center
06:17PM 26.0744 -79.4089 301° West 101 116 7,500 60 Climbing Miami Center
06:17PM 26.0758 -79.4331 274° West 102 117 7,600 60 Climbing Miami Center
06:18PM 26.0764 -79.4428 274° West 101 116 7,600 -180 Level Miami Center
06:18PM 26.0742 -79.4586 261° West 102 117 7,500 -120 Descending Miami Center
06:19PM 26.0733 -79.4719 266° West 105 121 7,500  Level Miami Center
06:19PM 26.0703 -79.4908 260° West 103 119 7,500  Level Miami Center
06:20PM 26.0683 -79.5022 259° West 102 117 7,500  Level Miami Center
06:20PM 26.0667 -79.5206 264° West 100 115 7,500 -120 Level Miami Center
06:21PM 26.0669 -79.5389 271° West 102 117 7,400 -120 Descending Miami Center
06:21PM 26.0667 -79.5531 269° West 102 117 7,400  Level Miami Center
06:22PM 26.0675 -79.5708 273° West 102 117 7,400 -120 Level Miami Center
06:22PM 26.0669 -79.5856 268° West 101 116 7,300 -120 Descending Miami Center
06:23PM 26.0672 -79.6022 271° West 102 117 7,300  Level Miami Center
06:23PM 26.0672 -79.6181 270° West 102 117 7,300  Level Miami Center
06:24PM 26.0686 -79.6325 276° West 102 117 7,300  Level Miami Center
06:24PM 26.0675 -79.6481 265° West 101 116 7,300  Level Miami Center
06:25PM 26.0681 -79.6628 272° West 101 116 7,300  Level Miami Center
06:25PM 26.0700 -79.6761 279° West 99 114 7,300  Level Miami Center
06:26PM 26.0717 -79.6950 276° West 103 119 7,300  Level Miami Center
06:26PM 26.0725 -79.7064 275° West 100 115 7,300 -120 Level Miami Center
06:27PM 26.0728 -79.7250 271° West 102 117 7,200  Descending Miami Center
06:27PM 26.0728 -79.7367 270° West 101 116 7,300 60 Climbing Miami Center
06:28PM 26.0728 -79.7550 270° West 100 115 7,300  Level Miami Center
06:28PM 26.0728 -79.7692 270° West 100 115 7,300 -240 Level Miami Center
06:29PM 26.0736 -79.7936 272° West 104 120 7,100 -300 Descending Miami Center
06:29PM 26.0728 -79.8039 265° West 107 123 7,000 -300 Descending Miami Center
06:30PM 26.0742 -79.8281 274° West 109 125 6,800 -240 Descending Miami Center
06:30PM 26.0731 -79.8386 263° West 112 129 6,800 -540 Level Miami Center
06:31PM 26.0842 -79.8581 302° West 110 127 6,300 -720 Descending Miami Center
06:32PM 26.1069 -79.8847 314° West 116 133 5,600 -780 Descending Miami Center
06:32PM 26.1156 -79.8975 307° West 119 137 5,300 -600 Descending Miami Center
06:33PM 26.1172 -79.9183 275° West 118 136 5,000 -420 Descending Miami Center
06:33PM 26.1239 -79.9306 301° West 114 131 4,900 -540 Descending Miami Center
06:34PM 26.1325 -79.9486 298° West 115 132 4,500 -600 Descending Miami Center
06:34PM 26.1389 -79.9594 303° West 115 132 4,400 -600 Descending Miami Center
06:35PM 26.1497 -79.9783 303° West 115 132 3,900 -720 Descending Miami Center
06:35PM 26.1558 -79.9911 298° West 117 135 3,700 -1,140 Descending Miami Center
06:36PM 26.1769 -80.0228 307° West 133 153 2,600 -1,140 Descending Miami Center
06:37PM 26.2044 -80.0528 316° Northwest 140 161 1,500 -780 Descending Miami Center
06:38PM 26.2239 -80.0750 314° West 120 138 1,200 -240 Descending Miami Center
06:39PM 26.2394 -80.0983 307° West 99 114 1,100 60 Descending Miami Center
06:40PM 26.2311 -80.1239 250° West 89 102 1,400 60 Climbing Miami Center
06:41PM 26.2311 -80.1569 270° West 105 121 1,300 -300 Descending Miami Center
06:42PM 26.2369 -80.1906 281° West 107 123 800 -300 Descending Miami Center
06:43PM 26.2339 -80.2197 263° West 89 102 700 -60 Descending Miami Center
06:44PM 26.2167 -80.2133 162° South 80 92 700 60 Level Miami Center
06:45PM 26.1983 -80.2186 194° South 75 86 900 -120 Climbing Miami Center
06:46PM 26.1961 -80.1969 97° East 79 91 500 -420 Descending Miami Center
06:47PM 26.1989 -80.1747 82° East 78 90 100 -420 Descending Miami Center